createdAt,value
2018-01-25T00:01:45.890Z,51.15
2018-01-25T00:04:14.318Z,51.94
2018-01-25T00:06:42.780Z,52.46
2018-01-25T00:09:11.244Z,52.74
2018-01-25T00:11:39.749Z,52.25
2018-01-25T00:14:08.212Z,51.65
2018-01-25T00:16:36.685Z,52.02
2018-01-25T00:19:05.161Z,52.41
2018-01-25T00:21:33.672Z,53.64
2018-01-25T00:24:02.197Z,52.68
2018-01-25T00:26:30.853Z,53.42
2018-01-25T00:28:59.256Z,52.44
2018-01-25T00:31:27.744Z,53.19
2018-01-25T00:33:56.163Z,52.07
2018-01-25T00:36:24.637Z,52.98
2018-01-25T00:38:53.107Z,53.42
2018-01-25T00:41:21.516Z,52.91
2018-01-25T00:43:49.965Z,53.04
2018-01-25T00:46:18.415Z,53.56
2018-01-25T00:48:46.888Z,54.09
2018-01-25T00:51:15.315Z,54.55
2018-01-25T00:53:43.792Z,55.06
2018-01-25T00:56:12.261Z,53.65
2018-01-25T00:58:40.900Z,54.05
2018-01-25T01:01:09.362Z,54.22
2018-01-25T01:03:37.880Z,53.86
2018-01-25T01:06:06.353Z,52.89
2018-01-25T01:08:34.868Z,53.33
2018-01-25T01:11:03.299Z,53.46
2018-01-25T01:13:31.778Z,52.84
2018-01-25T01:16:00.330Z,52.09
2018-01-25T01:18:28.752Z,52.18
2018-01-25T01:20:57.285Z,52.19
2018-01-25T01:23:25.708Z,52.26
2018-01-25T01:25:54.132Z,52.91
2018-01-25T01:28:22.580Z,52.32
2018-01-25T01:30:51.020Z,52.26
2018-01-25T01:33:19.488Z,53.21
2018-01-25T01:35:47.915Z,54.85
2018-01-25T01:38:16.337Z,52.57
2018-01-25T01:40:44.891Z,54.76
2018-01-25T01:43:13.314Z,55.02
2018-01-25T01:45:41.781Z,54.08
2018-01-25T01:48:10.305Z,52.85
2018-01-25T01:50:38.819Z,52.90
2018-01-25T01:53:07.284Z,54.00
2018-01-25T01:55:35.716Z,54.42
2018-01-25T01:58:04.137Z,54.03
2018-01-25T02:00:32.589Z,53.16
2018-01-25T02:03:01.088Z,54.23
2018-01-25T02:05:29.604Z,53.84
2018-01-25T02:07:58.024Z,53.41
2018-01-25T02:10:26.529Z,53.45
2018-01-25T02:12:55.028Z,52.82
2018-01-25T02:15:23.473Z,54.28
2018-01-25T02:17:51.897Z,53.11
2018-01-25T02:20:20.357Z,53.27
2018-01-25T02:22:48.792Z,53.20
2018-01-25T02:25:17.226Z,53.85
2018-01-25T02:27:45.729Z,54.06
2018-01-25T02:30:14.196Z,54.06
2018-01-25T02:32:42.683Z,56.31
2018-01-25T02:35:11.137Z,57.95
2018-01-25T02:37:39.609Z,57.79
2018-01-25T02:40:08.109Z,57.64
2018-01-25T02:42:36.537Z,57.96
2018-01-25T02:45:05.008Z,58.87
2018-01-25T02:47:33.529Z,59.46
2018-01-25T02:50:01.951Z,60.31
2018-01-25T02:52:30.393Z,59.56
2018-01-25T02:54:58.848Z,61.27
2018-01-25T02:57:27.321Z,59.48
2018-01-25T02:59:55.769Z,59.42
2018-01-25T03:02:24.259Z,60.13
2018-01-25T03:04:52.766Z,59.29
2018-01-25T03:07:21.178Z,57.46
2018-01-25T03:09:49.636Z,56.85
2018-01-25T03:12:18.210Z,61.08
2018-01-25T03:14:46.689Z,60.21
2018-01-25T03:17:15.139Z,59.63
2018-01-25T03:19:43.557Z,61.16
2018-01-25T03:22:11.990Z,60.98
2018-01-25T03:24:40.520Z,60.53
2018-01-25T03:27:08.954Z,59.47
2018-01-25T03:29:37.404Z,60.41
2018-01-25T03:32:05.881Z,61.32
2018-01-25T03:34:34.351Z,61.00
2018-01-25T03:37:02.829Z,60.44
2018-01-25T03:39:31.309Z,62.10
2018-01-25T03:41:59.818Z,63.10
2018-01-25T03:44:28.285Z,63.61
2018-01-25T03:46:56.821Z,63.98
2018-01-25T03:49:25.241Z,63.75
2018-01-25T03:51:53.658Z,63.33
2018-01-25T03:54:22.108Z,63.84
2018-01-25T03:56:50.625Z,63.95
2018-01-25T03:59:19.104Z,63.96
2018-01-25T04:01:47.521Z,63.93
2018-01-25T04:04:15.968Z,64.10
2018-01-25T04:06:44.358Z,63.67
2018-01-25T04:09:12.857Z,62.73
2018-01-25T04:11:41.274Z,62.37
2018-01-25T04:14:09.706Z,63.40
2018-01-25T04:16:38.115Z,63.44
2018-01-25T04:19:06.577Z,62.47
2018-01-25T04:21:35.015Z,63.01
2018-01-25T04:24:03.468Z,61.41
2018-01-25T04:26:31.919Z,60.72
2018-01-25T04:29:00.430Z,59.89
2018-01-25T04:31:28.896Z,59.08
2018-01-25T04:33:57.349Z,59.57
2018-01-25T04:36:25.800Z,59.06
2018-01-25T04:38:54.209Z,58.83
2018-01-25T04:41:22.655Z,58.17
2018-01-25T04:43:51.163Z,58.29
2018-01-25T04:46:19.603Z,59.94
2018-01-25T04:48:48.085Z,59.00
2018-01-25T04:51:16.496Z,58.67
2018-01-25T04:53:44.969Z,59.83
2018-01-25T04:56:13.469Z,58.45
2018-01-25T04:58:41.884Z,58.21
2018-01-25T05:01:10.441Z,58.06
2018-01-25T05:03:38.921Z,58.06
2018-01-25T05:06:07.333Z,57.76
2018-01-25T05:08:35.785Z,58.01
2018-01-25T05:11:04.290Z,59.54
2018-01-25T05:13:32.716Z,59.82
2018-01-25T05:16:01.150Z,60.16
2018-01-25T05:18:29.632Z,58.59
2018-01-25T05:20:58.125Z,58.57
2018-01-25T05:23:26.662Z,59.08
2018-01-25T05:25:55.108Z,57.57
2018-01-25T05:28:23.661Z,57.98
2018-01-25T05:30:52.085Z,57.80
2018-01-25T05:33:20.557Z,58.07
2018-01-25T05:35:49.040Z,57.95
2018-01-25T05:38:17.481Z,58.14
2018-01-25T05:40:45.928Z,57.55
2018-01-25T05:43:14.333Z,58.08
2018-01-25T05:45:42.784Z,59.16
2018-01-25T05:48:11.233Z,58.25
2018-01-25T05:50:39.676Z,60.40
2018-01-25T05:53:08.081Z,58.03
2018-01-25T05:55:36.548Z,58.76
2018-01-25T05:58:05.021Z,58.72
2018-01-25T06:00:33.566Z,59.29
2018-01-25T06:03:02.115Z,59.66
2018-01-25T06:05:30.570Z,58.90
2018-01-25T06:07:59.061Z,59.92
2018-01-25T06:10:27.516Z,59.98
2018-01-25T06:12:55.992Z,61.37
2018-01-25T06:15:24.416Z,62.75
2018-01-25T06:17:52.878Z,63.33
2018-01-25T06:20:21.551Z,61.30
2018-01-25T06:22:50.008Z,60.99
2018-01-25T06:25:18.475Z,62.06
2018-01-25T06:27:46.932Z,61.12
2018-01-25T06:30:15.361Z,60.76
2018-01-25T06:32:43.906Z,59.78
2018-01-25T06:35:12.363Z,59.35
2018-01-25T06:37:40.791Z,58.94
2018-01-25T06:40:09.237Z,58.58
2018-01-25T06:42:37.744Z,58.38
2018-01-25T06:45:06.331Z,58.48
2018-01-25T06:47:34.822Z,58.15
2018-01-25T06:50:03.400Z,57.73
2018-01-25T06:52:31.928Z,57.06
2018-01-25T06:55:00.401Z,56.86
2018-01-25T06:57:28.918Z,56.85
2018-01-25T06:59:57.345Z,56.04
2018-01-25T07:02:25.797Z,54.97
2018-01-25T07:04:54.283Z,54.88
2018-01-25T07:07:22.756Z,55.13
2018-01-25T07:09:51.193Z,54.31
2018-01-25T07:12:19.686Z,54.15
2018-01-25T07:14:48.090Z,54.04
2018-01-25T07:17:16.560Z,54.19
2018-01-25T07:19:44.977Z,53.82
2018-01-25T07:22:13.405Z,52.27
2018-01-25T07:24:41.868Z,52.73
2018-01-25T07:27:11.224Z,52.71
2018-01-25T07:29:39.676Z,52.00
2018-01-25T07:32:08.157Z,51.92
2018-01-25T07:34:36.612Z,51.32
2018-01-25T07:37:05.097Z,50.90
2018-01-25T07:39:33.569Z,50.92
2018-01-25T07:42:02.105Z,49.71
2018-01-25T07:44:30.578Z,49.69
2018-01-25T07:46:58.993Z,50.24
2018-01-25T07:49:27.437Z,48.90
2018-01-25T07:51:55.880Z,47.88
2018-01-25T07:54:24.349Z,46.75
2018-01-25T07:56:52.871Z,47.45
2018-01-25T07:59:21.282Z,47.68
2018-01-25T08:01:49.732Z,47.07
2018-01-25T08:04:18.177Z,46.66
2018-01-25T08:06:46.578Z,46.59
2018-01-25T08:09:15.040Z,45.81
2018-01-25T08:11:43.445Z,46.06
2018-01-25T08:14:11.921Z,45.86
2018-01-25T08:16:45.889Z,46.23
2018-01-25T08:19:14.293Z,46.24
2018-01-25T08:21:42.785Z,45.96
2018-01-25T08:24:11.246Z,46.81
2018-01-25T08:26:39.689Z,46.19
2018-01-25T08:29:08.175Z,46.18
2018-01-25T08:31:36.648Z,46.11
2018-01-25T08:34:05.125Z,45.81
2018-01-25T08:36:33.645Z,46.57
2018-01-25T08:39:02.068Z,46.30
2018-01-25T08:41:33.156Z,45.93
2018-01-25T08:43:59.061Z,45.95
2018-01-25T08:46:28.417Z,45.89
2018-01-25T08:48:56.921Z,45.52
2018-01-25T08:51:25.353Z,45.09
2018-01-25T08:53:53.885Z,45.33
2018-01-25T08:56:22.353Z,45.59
2018-01-25T08:58:50.827Z,45.13
2018-01-25T09:01:19.291Z,45.20
2018-01-25T09:03:47.741Z,45.53
2018-01-25T09:06:16.277Z,45.85
2018-01-25T09:08:44.773Z,45.42
2018-01-25T09:11:13.154Z,45.87
2018-01-25T09:13:41.610Z,45.27
2018-01-25T09:16:10.039Z,45.15
2018-01-25T09:18:38.488Z,44.93
2018-01-25T09:21:06.942Z,45.22
2018-01-25T09:23:35.408Z,44.88
2018-01-25T09:26:03.881Z,43.80
2018-01-25T09:28:32.414Z,43.25
2018-01-25T09:31:00.829Z,43.41
2018-01-25T09:33:29.238Z,42.87
2018-01-25T09:35:57.677Z,43.58
2018-01-25T09:38:26.153Z,42.43
2018-01-25T09:40:54.604Z,42.70
2018-01-25T09:43:23.070Z,42.02
2018-01-25T09:45:51.589Z,42.51
2018-01-25T09:48:20.105Z,41.46
2018-01-25T09:50:48.577Z,41.36
2018-01-25T09:53:17.086Z,42.14
2018-01-25T09:55:45.509Z,41.34
2018-01-25T09:58:13.970Z,41.23
2018-01-25T10:00:42.485Z,39.31
2018-01-25T10:03:10.943Z,39.36
2018-01-25T10:05:39.401Z,40.02
2018-01-25T10:08:07.901Z,39.58
2018-01-25T10:10:36.300Z,39.85
2018-01-25T10:13:04.764Z,39.77
2018-01-25T10:15:33.255Z,39.80
2018-01-25T10:18:01.737Z,39.43
2018-01-25T10:20:30.170Z,39.34
2018-01-25T10:22:58.572Z,39.02
2018-01-25T10:25:27.037Z,39.67
2018-01-25T10:27:55.481Z,40.07
2018-01-25T10:30:23.901Z,39.87
2018-01-25T10:32:52.340Z,39.40
2018-01-25T10:35:20.805Z,39.94
2018-01-25T10:37:49.344Z,38.21
2018-01-25T10:40:17.757Z,39.34
2018-01-25T10:42:46.186Z,38.18
2018-01-25T10:45:14.699Z,39.59
2018-01-25T10:47:43.121Z,39.27
2018-01-25T10:50:11.564Z,39.83
2018-01-25T10:52:40.087Z,40.53
2018-01-25T10:55:08.534Z,39.42
2018-01-25T10:57:36.985Z,40.48
2018-01-25T11:00:05.390Z,37.78
2018-01-25T11:02:33.896Z,37.99
2018-01-25T11:05:02.392Z,37.52
2018-01-25T11:07:30.850Z,37.33
2018-01-25T11:09:59.298Z,37.62
2018-01-25T11:12:27.758Z,38.25
2018-01-25T11:14:56.266Z,38.06
2018-01-25T11:17:24.902Z,38.14
2018-01-25T11:19:53.304Z,38.12
2018-01-25T11:22:21.744Z,38.09
2018-01-25T11:24:50.160Z,38.14
2018-01-25T11:27:18.614Z,37.76
2018-01-25T11:29:47.086Z,37.51
2018-01-25T11:32:15.533Z,37.10
2018-01-25T11:34:43.941Z,37.57
2018-01-25T11:37:12.388Z,38.13
2018-01-25T11:39:40.791Z,38.32
2018-01-25T11:42:09.251Z,37.99
2018-01-25T11:44:37.725Z,38.23
2018-01-25T11:47:06.120Z,38.26
2018-01-25T11:49:34.548Z,38.17
2018-01-25T11:52:03.019Z,38.07
2018-01-25T11:54:31.470Z,38.15
2018-01-25T11:56:59.968Z,38.05
2018-01-25T11:59:28.478Z,38.99
2018-01-25T12:01:56.987Z,39.02
2018-01-25T12:04:25.480Z,39.08
2018-01-25T12:06:53.990Z,39.01
2018-01-25T12:09:22.506Z,39.32
2018-01-25T12:11:50.926Z,38.95
2018-01-25T12:14:19.441Z,37.68
2018-01-25T12:16:47.913Z,38.18
2018-01-25T12:19:16.313Z,38.20
2018-01-25T12:21:44.746Z,38.60
2018-01-25T12:24:13.199Z,38.21
2018-01-25T12:26:41.641Z,38.39
2018-01-25T12:29:10.076Z,37.78
2018-01-25T12:31:38.538Z,38.39
2018-01-25T12:34:06.985Z,37.78
2018-01-25T12:36:35.448Z,37.25
2018-01-25T12:39:03.992Z,37.94
2018-01-25T12:41:32.482Z,37.56
2018-01-25T12:44:01.027Z,37.05
2018-01-25T12:46:29.480Z,37.39
2018-01-25T12:48:57.917Z,37.42
2018-01-25T12:51:26.397Z,37.66
2018-01-25T12:53:54.895Z,37.13
2018-01-25T12:56:23.365Z,37.16
2018-01-25T12:58:51.834Z,37.49
2018-01-25T13:01:20.287Z,37.50
2018-01-25T13:03:48.792Z,37.81
2018-01-25T13:06:17.237Z,37.19
2018-01-25T13:08:45.751Z,37.33
2018-01-25T13:11:14.433Z,37.53
2018-01-25T13:13:42.925Z,37.17
2018-01-25T13:16:11.410Z,37.48
2018-01-25T13:18:39.873Z,37.08
2018-01-25T13:21:08.316Z,37.31
2018-01-25T13:23:36.789Z,37.58
2018-01-25T13:26:05.236Z,37.40
2018-01-25T13:28:33.710Z,37.58
2018-01-25T13:31:02.176Z,37.62
2018-01-25T13:33:36.193Z,36.84
2018-01-25T13:36:04.767Z,37.42
2018-01-25T13:38:33.307Z,37.86
2018-01-25T13:41:01.792Z,36.49
2018-01-25T13:43:30.277Z,37.48
2018-01-25T13:45:58.769Z,37.13
2018-01-25T13:48:27.284Z,36.57
2018-01-25T13:50:55.746Z,37.47
2018-01-25T13:53:24.157Z,37.35
2018-01-25T13:55:52.623Z,37.78
2018-01-25T13:58:21.083Z,37.66
2018-01-25T14:00:49.573Z,37.83
2018-01-25T14:03:18.049Z,37.42
2018-01-25T14:05:46.523Z,37.25
2018-01-25T14:08:14.989Z,37.50
2018-01-25T14:10:43.477Z,37.15
2018-01-25T14:13:11.933Z,37.24
2018-01-25T14:15:40.373Z,36.65
2018-01-25T14:18:08.829Z,37.36
2018-01-25T14:20:37.309Z,37.27
2018-01-25T14:23:05.726Z,37.56
2018-01-25T14:25:34.285Z,37.40
2018-01-25T14:28:03.369Z,36.94
2018-01-25T14:30:31.851Z,37.39
2018-01-25T14:33:00.357Z,36.74
2018-01-25T14:35:28.758Z,36.98
2018-01-25T14:37:57.297Z,37.54
2018-01-25T14:40:25.762Z,37.71
2018-01-25T14:42:54.358Z,37.90
2018-01-25T14:45:22.772Z,37.96
2018-01-25T14:47:51.204Z,38.05
2018-01-25T14:50:19.649Z,38.11
2018-01-25T14:52:48.060Z,38.13
2018-01-25T14:55:16.517Z,38.19
2018-01-25T14:57:45.021Z,38.36
2018-01-25T15:00:13.446Z,38.48
2018-01-25T15:02:41.932Z,38.61
2018-01-25T15:05:10.318Z,38.66
2018-01-25T15:07:38.760Z,38.73
2018-01-25T15:10:07.228Z,38.70
2018-01-25T15:12:35.730Z,38.59
2018-01-25T15:15:04.177Z,38.83
2018-01-25T15:17:32.723Z,38.92
2018-01-25T15:20:01.136Z,39.01
2018-01-25T15:22:29.631Z,38.97
2018-01-25T15:25:03.925Z,39.14
2018-01-25T15:27:34.152Z,39.23
2018-01-25T15:30:02.617Z,39.37
2018-01-25T15:32:31.041Z,39.54
2018-01-25T15:34:59.541Z,39.62
2018-01-25T15:37:27.949Z,39.72
2018-01-25T15:39:56.400Z,39.78
2018-01-25T15:42:24.902Z,39.86
2018-01-25T15:44:53.348Z,39.96
2018-01-25T15:47:21.813Z,40.19
2018-01-25T15:49:50.314Z,40.47
2018-01-25T15:52:18.809Z,40.85
2018-01-25T15:54:47.224Z,40.82
2018-01-25T15:57:15.680Z,41.24
2018-01-25T15:59:44.095Z,41.40
2018-01-25T16:02:12.497Z,42.22
2018-01-25T16:04:40.997Z,41.92
2018-01-25T16:07:09.404Z,41.65
2018-01-25T16:09:37.853Z,41.97
2018-01-25T16:12:06.269Z,41.80
2018-01-25T16:14:34.716Z,41.97
2018-01-25T16:17:03.102Z,44.09
2018-01-25T16:19:31.588Z,43.25
2018-01-25T16:21:59.994Z,43.35
2018-01-25T16:24:28.393Z,42.93
2018-01-25T16:26:56.840Z,43.12
2018-01-25T16:29:25.337Z,43.05
2018-01-25T16:31:53.793Z,44.27
2018-01-25T16:34:22.245Z,43.63
2018-01-25T16:36:50.649Z,43.38
2018-01-25T16:39:19.117Z,44.19
2018-01-25T16:41:47.633Z,44.37
2018-01-25T16:44:16.110Z,44.93
2018-01-25T16:46:44.598Z,46.21
2018-01-25T16:49:13.095Z,46.38
2018-01-25T16:51:41.557Z,45.74
2018-01-25T16:54:09.952Z,45.75
2018-01-25T16:56:38.393Z,45.35
2018-01-25T16:59:06.874Z,46.04
2018-01-25T17:01:35.277Z,47.11
2018-01-25T17:04:03.781Z,45.71
2018-01-25T17:06:32.218Z,46.21
2018-01-25T17:09:00.640Z,47.46
2018-01-25T17:11:29.136Z,46.51
2018-01-25T17:13:57.545Z,46.79
2018-01-25T17:16:25.998Z,46.63
2018-01-25T17:18:54.444Z,46.76
2018-01-25T17:21:22.965Z,47.20
2018-01-25T17:23:51.480Z,46.85
2018-01-25T17:26:19.927Z,46.89
2018-01-25T17:28:48.402Z,47.27
2018-01-25T17:31:16.845Z,47.39
2018-01-25T17:33:45.297Z,50.75
2018-01-25T17:36:13.705Z,48.32
2018-01-25T17:38:42.109Z,48.30
2018-01-25T17:41:10.554Z,47.92
2018-01-25T17:43:39.025Z,49.36
2018-01-25T17:46:07.522Z,49.16
2018-01-25T17:48:35.988Z,48.87
2018-01-25T17:51:04.408Z,49.43
2018-01-25T17:53:32.877Z,53.67
2018-01-25T17:56:01.369Z,50.86
2018-01-25T17:58:29.825Z,49.74
2018-01-25T18:00:58.323Z,51.12
2018-01-25T18:03:26.833Z,50.98
2018-01-25T18:05:55.259Z,50.58
2018-01-25T18:08:23.695Z,53.21
2018-01-25T18:10:52.177Z,54.32
2018-01-25T18:13:20.625Z,54.27
2018-01-25T18:15:49.041Z,52.05
2018-01-25T18:18:17.566Z,51.30
2018-01-25T18:20:46.049Z,51.45
2018-01-25T18:23:14.465Z,51.30
2018-01-25T18:25:42.969Z,50.94
2018-01-25T18:28:11.453Z,50.97
2018-01-25T18:30:39.993Z,52.12
2018-01-25T18:33:08.436Z,51.90
2018-01-25T18:35:36.857Z,51.81
2018-01-25T18:38:05.331Z,51.57
2018-01-25T18:40:33.813Z,55.66
2018-01-25T18:43:02.248Z,55.93
2018-01-25T18:45:30.721Z,52.83
2018-01-25T18:47:59.176Z,52.29
2018-01-25T18:50:27.589Z,52.94
2018-01-25T18:52:56.057Z,52.28
2018-01-25T18:55:24.469Z,52.55
2018-01-25T18:57:52.893Z,52.26
2018-01-25T19:00:21.904Z,52.65
2018-01-25T19:02:50.313Z,55.78
2018-01-25T19:05:18.765Z,53.32
2018-01-25T19:07:47.182Z,52.47
2018-01-25T19:10:15.641Z,52.90
2018-01-25T19:12:44.081Z,52.74
2018-01-25T19:15:12.557Z,53.46
2018-01-25T19:17:40.989Z,52.67
2018-01-25T19:20:09.456Z,52.61
2018-01-25T19:22:37.974Z,54.48
2018-01-25T19:25:06.495Z,54.27
2018-01-25T19:27:34.960Z,53.39
2018-01-25T19:30:03.480Z,53.62
2018-01-25T19:32:31.957Z,56.69
2018-01-25T19:35:00.449Z,53.35
2018-01-25T19:37:28.933Z,55.86
2018-01-25T19:39:57.488Z,54.33
2018-01-25T19:42:25.951Z,55.10
2018-01-25T19:44:54.427Z,54.85
2018-01-25T19:47:22.887Z,55.73
2018-01-25T19:49:51.385Z,54.30
2018-01-25T19:52:19.905Z,54.89
2018-01-25T19:54:48.328Z,55.25
2018-01-25T19:57:16.745Z,54.51
2018-01-25T19:59:45.228Z,54.20
2018-01-25T20:02:13.652Z,53.97
2018-01-25T20:04:42.106Z,53.65
2018-01-25T20:07:10.528Z,54.39
2018-01-25T20:09:38.988Z,54.58
2018-01-25T20:12:07.485Z,55.43
2018-01-25T20:14:35.957Z,55.67
2018-01-25T20:17:04.384Z,54.88
2018-01-25T20:19:32.845Z,55.21
2018-01-25T20:22:01.354Z,55.21
2018-01-25T20:24:29.817Z,55.16
2018-01-25T20:26:58.333Z,55.22
2018-01-25T20:29:26.754Z,54.96
2018-01-25T20:31:55.217Z,55.17
2018-01-25T20:34:23.718Z,55.58
2018-01-25T20:36:52.233Z,55.90
2018-01-25T20:39:20.657Z,55.17
2018-01-25T20:41:49.194Z,55.38
2018-01-25T20:44:17.609Z,55.86
2018-01-25T20:46:46.109Z,54.76
2018-01-25T20:49:14.650Z,54.67
2018-01-25T20:51:43.129Z,54.58
2018-01-25T20:54:11.584Z,54.31
2018-01-25T20:56:40.052Z,55.15
2018-01-25T20:59:08.468Z,56.25
2018-01-25T21:01:36.885Z,54.87
2018-01-25T21:04:05.357Z,57.69
2018-01-25T21:06:33.877Z,58.18
2018-01-25T21:09:02.359Z,55.89
2018-01-25T21:11:30.825Z,55.84
2018-01-25T21:13:59.252Z,57.59
2018-01-25T21:16:27.729Z,57.54
2018-01-25T21:18:56.184Z,55.81
2018-01-25T21:21:24.669Z,56.29
2018-01-25T21:23:53.116Z,56.01
2018-01-25T21:26:21.528Z,57.04
2018-01-25T21:28:49.982Z,56.78
2018-01-25T21:31:18.411Z,56.31
2018-01-25T21:33:46.868Z,56.02
2018-01-25T21:36:15.348Z,55.91
2018-01-25T21:38:43.825Z,56.87
2018-01-25T21:41:12.288Z,56.78
2018-01-25T21:43:40.697Z,56.57
2018-01-25T21:46:09.148Z,59.54
2018-01-25T21:48:37.628Z,59.52
2018-01-25T21:51:06.090Z,59.57
2018-01-25T21:53:34.541Z,60.64
2018-01-25T21:56:02.973Z,58.73
2018-01-25T21:58:31.426Z,59.28
2018-01-25T22:00:59.928Z,58.79
2018-01-25T22:03:28.392Z,57.95
2018-01-25T22:05:56.808Z,57.16
2018-01-25T22:08:25.265Z,58.04
2018-01-25T22:10:53.680Z,57.58
2018-01-25T22:13:22.133Z,59.40
2018-01-25T22:15:50.608Z,58.53
2018-01-25T22:18:19.097Z,57.55
2018-01-25T22:20:47.591Z,57.60
2018-01-25T22:23:16.105Z,57.52
2018-01-25T22:25:44.516Z,58.21
2018-01-25T22:28:12.946Z,57.42
2018-01-25T22:30:41.409Z,57.45
2018-01-25T22:33:09.890Z,58.80
2018-01-25T22:35:38.313Z,57.13
2018-01-25T22:38:06.767Z,58.04
2018-01-25T22:40:35.285Z,57.31
2018-01-25T22:43:03.819Z,58.21
2018-01-25T22:45:32.246Z,59.96
2018-01-25T22:48:00.708Z,60.24
2018-01-25T22:50:29.155Z,60.47
2018-01-25T22:52:57.601Z,59.21
2018-01-25T22:55:26.080Z,59.69
2018-01-25T22:57:54.492Z,59.94
2018-01-25T23:00:34.652Z,60.29
2018-01-25T23:03:03.092Z,59.79
2018-01-25T23:05:31.524Z,60.44
2018-01-25T23:07:59.988Z,61.09
2018-01-25T23:10:28.453Z,61.15
2018-01-25T23:12:56.948Z,61.09
2018-01-25T23:15:25.412Z,61.42
2018-01-25T23:17:53.921Z,59.87
2018-01-25T23:20:22.369Z,60.81
2018-01-25T23:22:50.817Z,62.32
2018-01-25T23:25:19.292Z,62.94
2018-01-25T23:27:47.749Z,59.92
2018-01-25T23:30:16.316Z,58.98
2018-01-25T23:32:44.736Z,58.45
2018-01-25T23:35:13.245Z,58.22
2018-01-25T23:37:41.700Z,58.43
2018-01-25T23:40:10.217Z,58.96
2018-01-25T23:42:38.653Z,58.61
2018-01-25T23:45:07.157Z,59.27
2018-01-25T23:47:35.608Z,58.33
2018-01-25T23:50:04.142Z,57.97
2018-01-25T23:52:32.565Z,58.64
2018-01-25T23:55:01.050Z,60.00
2018-01-25T23:57:29.534Z,62.26
2018-01-25T23:59:57.989Z,62.33
